sensor_id;sensor_type;location;lat;lon;timestamp;pressure;altitude;pressure_sealevel;temperature;humidity
65758;BME280;52495;52.208;5.158;2023-01-27T00:00:24;102542.25;;;5.70;86.01
65758;BME280;52495;52.208;5.158;2023-01-27T00:02:51;102534.47;;;5.67;85.63
65758;BME280;52495;52.208;5.158;2023-01-27T00:05:18;102534.25;;;5.59;85.75
65758;BME280;52495;52.208;5.158;2023-01-27T00:07:46;102541.00;;;5.57;86.03
65758;BME280;52495;52.208;5.158;2023-01-27T00:10:16;102535.88;;;5.57;86.68
65758;BME280;52495;52.208;5.158;2023-01-27T00:12:46;102538.38;;;5.54;86.96
65758;BME280;52495;52.208;5.158;2023-01-27T00:15:32;102530.81;;;5.58;87.00
65758;BME280;52495;52.208;5.158;2023-01-27T00:17:59;102523.84;;;5.54;87.05
65758;BME280;52495;52.208;5.158;2023-01-27T00:20:26;102529.09;;;5.57;87.17
65758;BME280;52495;52.208;5.158;2023-01-27T00:23:15;102528.97;;;5.54;86.90
65758;BME280;52495;52.208;5.158;2023-01-27T00:26:01;102524.09;;;5.62;86.97
65758;BME280;52495;52.208;5.158;2023-01-27T00:28:31;102529.28;;;5.64;86.66
65758;BME280;52495;52.208;5.158;2023-01-27T00:30:58;102529.19;;;5.60;87.15
65758;BME280;52495;52.208;5.158;2023-01-27T00:33:25;102532.59;;;5.61;86.52
65758;BME280;52495;52.208;5.158;2023-01-27T00:36:02;102533.41;;;5.60;86.68
65758;BME280;52495;52.208;5.158;2023-01-27T00:38:32;102518.78;;;5.56;86.77
65758;BME280;52495;52.208;5.158;2023-01-27T00:40:59;102525.75;;;5.60;86.24
65758;BME280;52495;52.208;5.158;2023-01-27T00:43:44;102536.66;;;5.54;86.22
65758;BME280;52495;52.208;5.158;2023-01-27T00:46:11;102540.84;;;5.51;87.25
65758;BME280;52495;52.208;5.158;2023-01-27T00:48:39;102543.28;;;5.47;86.81
65758;BME280;52495;52.208;5.158;2023-01-27T00:51:05;102546.00;;;5.52;87.38
65758;BME280;52495;52.208;5.158;2023-01-27T00:53:34;102540.06;;;5.53;87.20
65758;BME280;52495;52.208;5.158;2023-01-27T00:56:01;102536.66;;;5.54;87.00
65758;BME280;52495;52.208;5.158;2023-01-27T00:58:28;102539.22;;;5.54;86.48
65758;BME280;52495;52.208;5.158;2023-01-27T01:00:56;102546.06;;;5.54;87.06
65758;BME280;52495;52.208;5.158;2023-01-27T01:03:24;102543.41;;;5.51;86.08
65758;BME280;52495;52.208;5.158;2023-01-27T01:05:51;102545.19;;;5.53;86.26
65758;BME280;52495;52.208;5.158;2023-01-27T01:08:18;102543.84;;;5.37;87.32
65758;BME280;52495;52.208;5.158;2023-01-27T01:10:46;102550.06;;;5.45;86.67
65758;BME280;52495;52.208;5.158;2023-01-27T01:13:13;102547.47;;;5.44;86.49
65758;BME280;52495;52.208;5.158;2023-01-27T01:15:40;102552.53;;;5.42;87.23
65758;BME280;52495;52.208;5.158;2023-01-27T01:18:08;102552.41;;;5.39;86.50
65758;BME280;52495;52.208;5.158;2023-01-27T01:20:35;102560.28;;;5.44;86.87
65758;BME280;52495;52.208;5.158;2023-01-27T01:23:03;102556.13;;;5.49;85.74
65758;BME280;52495;52.208;5.158;2023-01-27T01:25:30;102560.09;;;5.39;86.12
65758;BME280;52495;52.208;5.158;2023-01-27T01:27:58;102560.75;;;5.32;86.76
65758;BME280;52495;52.208;5.158;2023-01-27T01:30:25;102554.00;;;5.36;86.78
65758;BME280;52495;52.208;5.158;2023-01-27T01:32:53;102563.22;;;5.30;87.03
65758;BME280;52495;52.208;5.158;2023-01-27T01:35:20;102558.22;;;5.34;87.01
65758;BME280;52495;52.208;5.158;2023-01-27T01:37:49;102564.13;;;5.31;87.01
65758;BME280;52495;52.208;5.158;2023-01-27T01:40:16;102558.28;;;5.35;86.53
65758;BME280;52495;52.208;5.158;2023-01-27T01:42:51;102560.91;;;5.38;85.87
65758;BME280;52495;52.208;5.158;2023-01-27T01:45:43;102571.66;;;5.26;86.85
65758;BME280;52495;52.208;5.158;2023-01-27T01:48:13;102575.19;;;5.30;86.59
65758;BME280;52495;52.208;5.158;2023-01-27T01:50:44;102566.88;;;5.37;86.74
65758;BME280;52495;52.208;5.158;2023-01-27T01:53:13;102561.84;;;5.40;85.84
65758;BME280;52495;52.208;5.158;2023-01-27T01:55:41;102578.00;;;5.38;85.39
65758;BME280;52495;52.208;5.158;2023-01-27T01:58:10;102572.75;;;5.35;86.01
65758;BME280;52495;52.208;5.158;2023-01-27T02:00:40;102564.94;;;5.30;86.17
65758;BME280;52495;52.208;5.158;2023-01-27T02:03:06;102569.25;;;5.31;86.17
65758;BME280;52495;52.208;5.158;2023-01-27T02:05:36;102574.56;;;5.37;85.34
65758;BME280;52495;52.208;5.158;2023-01-27T02:08:08;102574.66;;;5.40;84.08
65758;BME280;52495;52.208;5.158;2023-01-27T02:10:37;102564.94;;;5.30;85.19
65758;BME280;52495;52.208;5.158;2023-01-27T02:13:04;102569.09;;;5.26;85.28
65758;BME280;52495;52.208;5.158;2023-01-27T02:15:31;102582.75;;;5.27;85.14
65758;BME280;52495;52.208;5.158;2023-01-27T02:18:00;102579.44;;;5.29;84.77
65758;BME280;52495;52.208;5.158;2023-01-27T02:20:31;102581.41;;;5.38;84.52
65758;BME280;52495;52.208;5.158;2023-01-27T02:23:10;102577.03;;;5.34;84.57
65758;BME280;52495;52.208;5.158;2023-01-27T02:25:46;102576.88;;;5.29;85.07
65758;BME280;52495;52.208;5.158;2023-01-27T02:28:13;102581.22;;;5.32;85.15
65758;BME280;52495;52.208;5.158;2023-01-27T02:30:40;102585.13;;;5.21;85.38
65758;BME280;52495;52.208;5.158;2023-01-27T02:33:11;102582.72;;;5.25;86.11
65758;BME280;52495;52.208;5.158;2023-01-27T02:35:43;102585.31;;;5.27;85.94
65758;BME280;52495;52.208;5.158;2023-01-27T02:38:11;102574.91;;;5.21;86.58
65758;BME280;52495;52.208;5.158;2023-01-27T02:40:41;102577.28;;;5.16;86.12
65758;BME280;52495;52.208;5.158;2023-01-27T02:43:11;102587.84;;;5.25;86.50
65758;BME280;52495;52.208;5.158;2023-01-27T02:45:38;102596.78;;;5.12;86.94
65758;BME280;52495;52.208;5.158;2023-01-27T02:48:05;102594.00;;;5.06;87.81
65758;BME280;52495;52.208;5.158;2023-01-27T02:50:31;102589.66;;;5.04;87.20
65758;BME280;52495;52.208;5.158;2023-01-27T02:52:58;102593.16;;;5.06;87.74
65758;BME280;52495;52.208;5.158;2023-01-27T02:55:25;102596.38;;;5.00;87.40
65758;BME280;52495;52.208;5.158;2023-01-27T02:57:52;102602.59;;;5.07;86.99
65758;BME280;52495;52.208;5.158;2023-01-27T03:00:39;102603.28;;;5.03;86.10
65758;BME280;52495;52.208;5.158;2023-01-27T03:03:06;102606.50;;;4.97;86.21
65758;BME280;52495;52.208;5.158;2023-01-27T03:05:33;102614.13;;;4.95;86.41
65758;BME280;52495;52.208;5.158;2023-01-27T03:08:00;102616.53;;;4.91;86.30
65758;BME280;52495;52.208;5.158;2023-01-27T03:10:26;102617.06;;;4.82;85.91
65758;BME280;52495;52.208;5.158;2023-01-27T03:12:53;102617.97;;;4.82;85.97
65758;BME280;52495;52.208;5.158;2023-01-27T03:15:20;102610.28;;;4.82;85.75
65758;BME280;52495;52.208;5.158;2023-01-27T03:18:08;102611.94;;;4.82;85.68
65758;BME280;52495;52.208;5.158;2023-01-27T03:20:35;102621.75;;;4.69;86.36
65758;BME280;52495;52.208;5.158;2023-01-27T03:23:02;102615.81;;;4.70;86.52
65758;BME280;52495;52.208;5.158;2023-01-27T03:25:29;102612.69;;;4.78;86.67
65758;BME280;52495;52.208;5.158;2023-01-27T03:27:56;102614.63;;;4.85;85.88
65758;BME280;52495;52.208;5.158;2023-01-27T03:30:30;102620.00;;;4.68;86.41
65758;BME280;52495;52.208;5.158;2023-01-27T03:33:12;102616.81;;;4.74;86.28
65758;BME280;52495;52.208;5.158;2023-01-27T03:36:00;102616.53;;;4.66;86.99
65758;BME280;52495;52.208;5.158;2023-01-27T03:38:48;102617.28;;;4.64;86.67
65758;BME280;52495;52.208;5.158;2023-01-27T03:41:32;102633.47;;;4.63;86.50
65758;BME280;52495;52.208;5.158;2023-01-27T03:44:16;102626.75;;;4.66;84.99
65758;BME280;52495;52.208;5.158;2023-01-27T03:47:00;102630.91;;;4.63;84.46
65758;BME280;52495;52.208;5.158;2023-01-27T03:49:29;102635.25;;;4.65;85.33
65758;BME280;52495;52.208;5.158;2023-01-27T03:51:56;102642.66;;;4.58;85.61
65758;BME280;52495;52.208;5.158;2023-01-27T03:54:23;102647.34;;;4.69;84.99
65758;BME280;52495;52.208;5.158;2023-01-27T03:56:50;102645.00;;;4.51;85.70
65758;BME280;52495;52.208;5.158;2023-01-27T03:59:17;102646.91;;;4.57;85.51
65758;BME280;52495;52.208;5.158;2023-01-27T04:01:44;102643.69;;;4.63;84.82
65758;BME280;52495;52.208;5.158;2023-01-27T04:04:10;102642.09;;;4.66;84.48
65758;BME280;52495;52.208;5.158;2023-01-27T04:06:56;102658.13;;;4.61;84.30
65758;BME280;52495;52.208;5.158;2023-01-27T04:09:26;102647.22;;;4.66;84.47
65758;BME280;52495;52.208;5.158;2023-01-27T04:11:55;102653.97;;;4.64;83.63
65758;BME280;52495;52.208;5.158;2023-01-27T04:14:25;102652.59;;;4.73;82.73
65758;BME280;52495;52.208;5.158;2023-01-27T04:16:54;102655.06;;;4.71;82.80
65758;BME280;52495;52.208;5.158;2023-01-27T04:19:22;102658.06;;;4.59;83.21
65758;BME280;52495;52.208;5.158;2023-01-27T04:21:49;102657.34;;;4.63;83.46
65758;BME280;52495;52.208;5.158;2023-01-27T04:24:17;102656.75;;;4.70;82.44
65758;BME280;52495;52.208;5.158;2023-01-27T04:26:53;102657.16;;;4.81;82.14
65758;BME280;52495;52.208;5.158;2023-01-27T04:29:22;102659.38;;;4.72;82.25
65758;BME280;52495;52.208;5.158;2023-01-27T04:31:49;102657.75;;;4.74;82.28
65758;BME280;52495;52.208;5.158;2023-01-27T04:34:16;102668.09;;;4.77;81.43
65758;BME280;52495;52.208;5.158;2023-01-27T04:36:43;102662.84;;;4.74;82.30
65758;BME280;52495;52.208;5.158;2023-01-27T04:39:10;102661.34;;;4.79;81.52
65758;BME280;52495;52.208;5.158;2023-01-27T04:41:38;102661.22;;;4.76;81.89
65758;BME280;52495;52.208;5.158;2023-01-27T04:44:06;102669.06;;;4.81;80.75
65758;BME280;52495;52.208;5.158;2023-01-27T04:46:33;102664.88;;;4.83;80.40
65758;BME280;52495;52.208;5.158;2023-01-27T04:49:00;102668.78;;;4.73;80.78
65758;BME280;52495;52.208;5.158;2023-01-27T04:51:28;102666.31;;;4.75;81.02
65758;BME280;52495;52.208;5.158;2023-01-27T04:53:55;102662.75;;;4.71;80.71
65758;BME280;52495;52.208;5.158;2023-01-27T04:56:24;102672.06;;;4.69;80.89
65758;BME280;52495;52.208;5.158;2023-01-27T04:58:54;102675.78;;;4.77;81.26
65758;BME280;52495;52.208;5.158;2023-01-27T05:01:23;102668.50;;;4.88;79.59
65758;BME280;52495;52.208;5.158;2023-01-27T05:03:49;102671.69;;;4.82;80.49
65758;BME280;52495;52.208;5.158;2023-01-27T05:06:16;102671.69;;;4.82;80.48
65758;BME280;52495;52.208;5.158;2023-01-27T05:08:43;102665.03;;;4.88;79.55
65758;BME280;52495;52.208;5.158;2023-01-27T05:11:10;102670.13;;;4.86;79.56
65758;BME280;52495;52.208;5.158;2023-01-27T05:13:37;102682.13;;;4.89;79.87
65758;BME280;52495;52.208;5.158;2023-01-27T05:16:10;102682.78;;;4.83;80.33
65758;BME280;52495;52.208;5.158;2023-01-27T05:18:38;102673.25;;;4.79;79.68
65758;BME280;52495;52.208;5.158;2023-01-27T05:21:06;102688.69;;;4.80;80.14
65758;BME280;52495;52.208;5.158;2023-01-27T05:23:33;102692.16;;;4.82;79.99
65758;BME280;52495;52.208;5.158;2023-01-27T05:26:09;102688.97;;;4.88;79.75
65758;BME280;52495;52.208;5.158;2023-01-27T05:28:37;102690.81;;;4.92;78.61
65758;BME280;52495;52.208;5.158;2023-01-27T05:31:08;102685.06;;;4.98;77.79
65758;BME280;52495;52.208;5.158;2023-01-27T05:33:35;102683.88;;;4.90;78.10
65758;BME280;52495;52.208;5.158;2023-01-27T05:36:05;102695.22;;;4.96;77.82
65758;BME280;52495;52.208;5.158;2023-01-27T05:38:32;102698.53;;;4.94;78.01
65758;BME280;52495;52.208;5.158;2023-01-27T05:41:01;102701.22;;;4.97;77.73
65758;BME280;52495;52.208;5.158;2023-01-27T05:43:28;102705.44;;;4.96;77.34
65758;BME280;52495;52.208;5.158;2023-01-27T05:46:03;102708.56;;;4.88;77.33
65758;BME280;52495;52.208;5.158;2023-01-27T05:48:33;102710.38;;;4.90;76.32
65758;BME280;52495;52.208;5.158;2023-01-27T05:51:01;102717.00;;;4.85;77.23
65758;BME280;52495;52.208;5.158;2023-01-27T05:53:28;102717.53;;;4.76;77.66
65758;BME280;52495;52.208;5.158;2023-01-27T05:55:55;102722.00;;;4.82;77.56
65758;BME280;52495;52.208;5.158;2023-01-27T05:58:22;102723.03;;;4.87;76.82
65758;BME280;52495;52.208;5.158;2023-01-27T06:00:49;102728.53;;;4.74;77.28
65758;BME280;52495;52.208;5.158;2023-01-27T06:03:17;102724.75;;;4.86;75.90
65758;BME280;52495;52.208;5.158;2023-01-27T06:05:53;102722.06;;;4.83;76.07
65758;BME280;52495;52.208;5.158;2023-01-27T06:08:20;102721.31;;;4.86;74.44
65758;BME280;52495;52.208;5.158;2023-01-27T06:10:47;102729.25;;;4.71;74.39
65758;BME280;52495;52.208;5.158;2023-01-27T06:13:14;102725.38;;;4.81;74.10
65758;BME280;52495;52.208;5.158;2023-01-27T06:15:42;102731.91;;;4.73;73.40
65758;BME280;52495;52.208;5.158;2023-01-27T06:18:10;102733.34;;;4.66;74.13
65758;BME280;52495;52.208;5.158;2023-01-27T06:20:37;102734.47;;;4.73;73.51
65758;BME280;52495;52.208;5.158;2023-01-27T06:23:07;102734.50;;;4.74;73.48
65758;BME280;52495;52.208;5.158;2023-01-27T06:25:35;102730.28;;;4.75;72.89
65758;BME280;52495;52.208;5.158;2023-01-27T06:28:03;102740.03;;;4.62;73.67
65758;BME280;52495;52.208;5.158;2023-01-27T06:30:31;102741.31;;;4.74;74.29
65758;BME280;52495;52.208;5.158;2023-01-27T06:32:58;102745.38;;;4.68;75.01
65758;BME280;52495;52.208;5.158;2023-01-27T06:35:25;102736.31;;;4.77;74.50
65758;BME280;52495;52.208;5.158;2023-01-27T06:37:52;102740.38;;;4.71;74.95
65758;BME280;52495;52.208;5.158;2023-01-27T06:40:20;102746.19;;;4.67;74.51
65758;BME280;52495;52.208;5.158;2023-01-27T06:42:47;102753.06;;;4.68;75.47
65758;BME280;52495;52.208;5.158;2023-01-27T06:45:13;102747.25;;;4.73;74.54
65758;BME280;52495;52.208;5.158;2023-01-27T06:47:41;102745.94;;;4.61;74.42
65758;BME280;52495;52.208;5.158;2023-01-27T06:50:10;102747.34;;;4.53;75.51
65758;BME280;52495;52.208;5.158;2023-01-27T06:52:37;102750.22;;;4.61;74.79
65758;BME280;52495;52.208;5.158;2023-01-27T06:55:04;102742.81;;;4.68;74.31
65758;BME280;52495;52.208;5.158;2023-01-27T06:57:33;102746.03;;;4.63;74.24
65758;BME280;52495;52.208;5.158;2023-01-27T06:59:59;102743.22;;;4.56;74.49
65758;BME280;52495;52.208;5.158;2023-01-27T07:02:26;102738.47;;;4.66;73.69
65758;BME280;52495;52.208;5.158;2023-01-27T07:04:53;102746.53;;;4.54;73.89
65758;BME280;52495;52.208;5.158;2023-01-27T07:07:20;102748.50;;;4.61;74.40
65758;BME280;52495;52.208;5.158;2023-01-27T07:09:47;102745.13;;;4.62;74.56
65758;BME280;52495;52.208;5.158;2023-01-27T07:12:13;102745.09;;;4.61;74.67
65758;BME280;52495;52.208;5.158;2023-01-27T07:14:41;102743.06;;;4.52;75.20
65758;BME280;52495;52.208;5.158;2023-01-27T07:17:08;102745.25;;;4.65;74.86
65758;BME280;52495;52.208;5.158;2023-01-27T07:19:35;102747.19;;;4.71;74.83
65758;BME280;52495;52.208;5.158;2023-01-27T07:22:02;102750.25;;;4.62;74.59
65758;BME280;52495;52.208;5.158;2023-01-27T07:24:28;102755.75;;;4.71;74.73
65758;BME280;52495;52.208;5.158;2023-01-27T07:26:55;102758.13;;;4.67;75.28
65758;BME280;52495;52.208;5.158;2023-01-27T07:29:22;102770.03;;;4.66;75.24
65758;BME280;52495;52.208;5.158;2023-01-27T07:31:50;102767.56;;;4.68;74.77
65758;BME280;52495;52.208;5.158;2023-01-27T07:34:17;102772.53;;;4.65;74.61
65758;BME280;52495;52.208;5.158;2023-01-27T07:36:44;102769.56;;;4.54;75.04
65758;BME280;52495;52.208;5.158;2023-01-27T07:39:10;102770.94;;;4.46;75.74
65758;BME280;52495;52.208;5.158;2023-01-27T07:41:37;102775.28;;;4.69;74.12
65758;BME280;52495;52.208;5.158;2023-01-27T07:44:04;102789.66;;;4.66;74.44
65758;BME280;52495;52.208;5.158;2023-01-27T07:46:32;102789.53;;;4.63;74.92
65758;BME280;52495;52.208;5.158;2023-01-27T07:49:00;102779.34;;;4.64;74.63
65758;BME280;52495;52.208;5.158;2023-01-27T07:51:27;102783.72;;;4.67;73.55
65758;BME280;52495;52.208;5.158;2023-01-27T07:53:54;102783.22;;;4.54;73.88
65758;BME280;52495;52.208;5.158;2023-01-27T07:56:20;102790.03;;;4.54;73.31
65758;BME280;52495;52.208;5.158;2023-01-27T07:58:47;102783.97;;;4.52;73.41
65758;BME280;52495;52.208;5.158;2023-01-27T08:01:14;102775.38;;;4.50;73.86
65758;BME280;52495;52.208;5.158;2023-01-27T08:03:41;102780.25;;;4.44;74.48
65758;BME280;52495;52.208;5.158;2023-01-27T08:06:11;102789.72;;;4.46;74.61
65758;BME280;52495;52.208;5.158;2023-01-27T08:08:38;102794.34;;;4.55;73.58
65758;BME280;52495;52.208;5.158;2023-01-27T08:11:07;102789.91;;;4.51;73.94
65758;BME280;52495;52.208;5.158;2023-01-27T08:13:34;102790.59;;;4.47;74.70
65758;BME280;52495;52.208;5.158;2023-01-27T08:16:03;102792.91;;;4.40;74.48
65758;BME280;52495;52.208;5.158;2023-01-27T08:18:31;102799.03;;;4.44;74.49
65758;BME280;52495;52.208;5.158;2023-01-27T08:20:59;102799.16;;;4.47;74.97
65758;BME280;52495;52.208;5.158;2023-01-27T08:23:27;102800.13;;;4.51;75.14
65758;BME280;52495;52.208;5.158;2023-01-27T08:25:56;102794.47;;;4.58;74.03
65758;BME280;52495;52.208;5.158;2023-01-27T08:28:24;102802.78;;;4.52;74.56
65758;BME280;52495;52.208;5.158;2023-01-27T08:30:52;102802.00;;;4.55;73.86
65758;BME280;52495;52.208;5.158;2023-01-27T08:33:19;102792.75;;;4.59;74.29
65758;BME280;52495;52.208;5.158;2023-01-27T08:35:47;102798.34;;;4.71;73.07
65758;BME280;52495;52.208;5.158;2023-01-27T08:38:16;102797.97;;;4.60;73.87
65758;BME280;52495;52.208;5.158;2023-01-27T08:40:46;102789.53;;;4.63;73.00
65758;BME280;52495;52.208;5.158;2023-01-27T08:43:13;102790.38;;;4.63;73.08
65758;BME280;52495;52.208;5.158;2023-01-27T08:45:41;102787.44;;;4.52;73.86
65758;BME280;52495;52.208;5.158;2023-01-27T08:48:08;102787.72;;;4.60;73.48
65758;BME280;52495;52.208;5.158;2023-01-27T08:50:35;102794.50;;;4.60;73.42
65758;BME280;52495;52.208;5.158;2023-01-27T08:53:02;102797.97;;;4.60;73.39
65758;BME280;52495;52.208;5.158;2023-01-27T08:55:30;102797.66;;;4.52;74.20
65758;BME280;52495;52.208;5.158;2023-01-27T08:57:58;102797.75;;;4.55;73.89
65758;BME280;52495;52.208;5.158;2023-01-27T09:00:25;102807.19;;;4.56;73.97
65758;BME280;52495;52.208;5.158;2023-01-27T09:02:52;102818.44;;;4.60;74.03
65758;BME280;52495;52.208;5.158;2023-01-27T09:05:19;102818.47;;;4.62;74.00
65758;BME280;52495;52.208;5.158;2023-01-27T09:07:46;102814.34;;;4.65;73.67
65758;BME280;52495;52.208;5.158;2023-01-27T09:10:14;102813.72;;;4.71;72.55
65758;BME280;52495;52.208;5.158;2023-01-27T09:12:42;102816.25;;;4.71;72.64
65758;BME280;52495;52.208;5.158;2023-01-27T09:15:11;102808.25;;;4.62;73.08
65758;BME280;52495;52.208;5.158;2023-01-27T09:17:39;102823.63;;;4.63;72.99
65758;BME280;52495;52.208;5.158;2023-01-27T09:20:06;102816.91;;;4.65;73.56
65758;BME280;52495;52.208;5.158;2023-01-27T09:22:34;102824.81;;;4.71;73.65
65758;BME280;52495;52.208;5.158;2023-01-27T09:25:02;102818.09;;;4.74;73.55
65758;BME280;52495;52.208;5.158;2023-01-27T09:27:28;102826.06;;;4.81;73.28
65758;BME280;52495;52.208;5.158;2023-01-27T09:29:55;102830.06;;;4.75;73.84
65758;BME280;52495;52.208;5.158;2023-01-27T09:32:23;102824.72;;;4.91;73.31
65758;BME280;52495;52.208;5.158;2023-01-27T09:34:50;102836.88;;;4.97;72.96
65758;BME280;52495;52.208;5.158;2023-01-27T09:37:17;102835.56;;;5.07;72.60
65758;BME280;52495;52.208;5.158;2023-01-27T09:39:47;102827.28;;;5.14;72.59
65758;BME280;52495;52.208;5.158;2023-01-27T09:42:29;102828.03;;;5.11;72.36
65758;BME280;52495;52.208;5.158;2023-01-27T09:45:13;102828.94;;;5.12;72.12
65758;BME280;52495;52.208;5.158;2023-01-27T09:47:56;102826.47;;;5.15;73.41
65758;BME280;52495;52.208;5.158;2023-01-27T09:50:38;102825.72;;;5.18;72.71
65758;BME280;52495;52.208;5.158;2023-01-27T09:53:35;102826.69;;;5.21;73.36
65758;BME280;52495;52.208;5.158;2023-01-27T09:56:06;102818.38;;;5.27;73.30
65758;BME280;52495;52.208;5.158;2023-01-27T09:58:43;102823.59;;;5.30;72.03
65758;BME280;52495;52.208;5.158;2023-01-27T10:01:21;102822.56;;;5.25;73.62
65758;BME280;52495;52.208;5.158;2023-01-27T10:04:14;102823.78;;;5.35;73.30
65758;BME280;52495;52.208;5.158;2023-01-27T10:07:09;102828.19;;;5.39;72.70
65758;BME280;52495;52.208;5.158;2023-01-27T10:09:50;102823.84;;;5.36;72.73
65758;BME280;52495;52.208;5.158;2023-01-27T10:12:33;102826.41;;;5.36;72.65
65758;BME280;52495;52.208;5.158;2023-01-27T10:15:12;102823.22;;;5.43;72.62
65758;BME280;52495;52.208;5.158;2023-01-27T10:17:47;102834.28;;;5.42;73.61
65758;BME280;52495;52.208;5.158;2023-01-27T10:20:25;102832.19;;;5.55;72.02
65758;BME280;52495;52.208;5.158;2023-01-27T10:23:02;102829.53;;;5.52;72.14
65758;BME280;52495;52.208;5.158;2023-01-27T10:25:43;102826.22;;;5.56;71.87
65758;BME280;52495;52.208;5.158;2023-01-27T10:28:21;102833.38;;;5.65;72.37
65758;BME280;52495;52.208;5.158;2023-01-27T10:30:57;102845.59;;;5.72;72.34
65758;BME280;52495;52.208;5.158;2023-01-27T10:33:33;102843.00;;;5.70;72.39
65758;BME280;52495;52.208;5.158;2023-01-27T10:36:10;102849.59;;;5.64;72.14
65758;BME280;52495;52.208;5.158;2023-01-27T10:38:47;102844.28;;;5.59;73.58
65758;BME280;52495;52.208;5.158;2023-01-27T10:41:25;102844.63;;;5.68;72.88
65758;BME280;52495;52.208;5.158;2023-01-27T10:44:11;102839.66;;;5.73;73.52
65758;BME280;52495;52.208;5.158;2023-01-27T10:46:48;102851.59;;;5.72;74.07
65758;BME280;52495;52.208;5.158;2023-01-27T10:49:21;102847.13;;;5.67;73.86
65758;BME280;52495;52.208;5.158;2023-01-27T10:51:54;102845.09;;;5.58;74.83
65758;BME280;52495;52.208;5.158;2023-01-27T10:54:30;102844.66;;;5.70;74.53
65758;BME280;52495;52.208;5.158;2023-01-27T10:57:03;102845.09;;;5.82;73.74
65758;BME280;52495;52.208;5.158;2023-01-27T10:59:37;102834.75;;;5.79;74.06
65758;BME280;52495;52.208;5.158;2023-01-27T11:02:17;102836.59;;;5.59;74.82
65758;BME280;52495;52.208;5.158;2023-01-27T11:04:51;102842.09;;;5.70;75.03
65758;BME280;52495;52.208;5.158;2023-01-27T11:07:21;102844.25;;;5.57;75.59
65758;BME280;52495;52.208;5.158;2023-01-27T11:09:54;102842.88;;;5.67;74.16
65758;BME280;52495;52.208;5.158;2023-01-27T11:12:28;102836.47;;;5.56;74.88
65758;BME280;52495;52.208;5.158;2023-01-27T11:14:57;102844.28;;;5.59;74.85
65758;BME280;52495;52.208;5.158;2023-01-27T11:17:29;102845.44;;;5.67;73.66
65758;BME280;52495;52.208;5.158;2023-01-27T11:20:02;102841.03;;;5.63;73.96
65758;BME280;52495;52.208;5.158;2023-01-27T11:22:36;102837.69;;;5.66;74.88
65758;BME280;52495;52.208;5.158;2023-01-27T11:25:20;102837.59;;;5.62;73.46
65758;BME280;52495;52.208;5.158;2023-01-27T11:28:05;102844.56;;;5.67;74.58
65758;BME280;52495;52.208;5.158;2023-01-27T11:30:38;102840.19;;;5.64;73.83
65758;BME280;52495;52.208;5.158;2023-01-27T11:33:16;102833.59;;;5.46;73.86
65758;BME280;52495;52.208;5.158;2023-01-27T11:35:44;102828.59;;;5.50;73.74
65758;BME280;52495;52.208;5.158;2023-01-27T11:38:16;102827.91;;;5.31;74.61
65758;BME280;52495;52.208;5.158;2023-01-27T11:40:44;102834.47;;;5.47;74.74
65758;BME280;52495;52.208;5.158;2023-01-27T11:43:16;102833.97;;;5.33;75.55
65758;BME280;52495;52.208;5.158;2023-01-27T11:45:45;102824.31;;;5.26;76.07
65758;BME280;52495;52.208;5.158;2023-01-27T11:48:15;102832.81;;;5.25;76.13
65758;BME280;52495;52.208;5.158;2023-01-27T11:50:43;102824.66;;;5.35;76.14
65758;BME280;52495;52.208;5.158;2023-01-27T11:53:16;102823.72;;;5.33;76.14
65758;BME280;52495;52.208;5.158;2023-01-27T11:55:48;102823.78;;;5.35;76.38
65758;BME280;52495;52.208;5.158;2023-01-27T11:58:21;102821.44;;;5.41;76.23
65758;BME280;52495;52.208;5.158;2023-01-27T12:00:53;102816.72;;;5.52;76.56
65758;BME280;52495;52.208;5.158;2023-01-27T12:03:23;102805.19;;;5.40;76.97
65758;BME280;52495;52.208;5.158;2023-01-27T12:05:54;102811.25;;;5.42;76.89
65758;BME280;52495;52.208;5.158;2023-01-27T12:08:41;102804.88;;;5.55;76.48
65758;BME280;52495;52.208;5.158;2023-01-27T12:11:18;102806.59;;;5.55;76.69
65758;BME280;52495;52.208;5.158;2023-01-27T12:13:51;102806.00;;;5.39;77.27
65758;BME280;52495;52.208;5.158;2023-01-27T12:16:19;102797.78;;;5.48;76.70
65758;BME280;52495;52.208;5.158;2023-01-27T12:18:50;102790.00;;;5.45;76.76
65758;BME280;52495;52.208;5.158;2023-01-27T12:21:18;102792.50;;;5.43;77.01
65758;BME280;52495;52.208;5.158;2023-01-27T12:23:50;102792.91;;;5.56;76.93
65758;BME280;52495;52.208;5.158;2023-01-27T12:26:30;102789.66;;;5.60;76.09
65758;BME280;52495;52.208;5.158;2023-01-27T12:29:04;102791.25;;;5.56;77.10
65758;BME280;52495;52.208;5.158;2023-01-27T12:31:42;102800.13;;;5.42;77.70
65758;BME280;52495;52.208;5.158;2023-01-27T12:34:28;102796.16;;;5.50;77.51
65758;BME280;52495;52.208;5.158;2023-01-27T12:37:21;102790.34;;;5.56;76.02
65758;BME280;52495;52.208;5.158;2023-01-27T12:39:53;102786.25;;;5.59;75.52
65758;BME280;52495;52.208;5.158;2023-01-27T12:42:43;102791.84;;;5.49;76.08
65758;BME280;52495;52.208;5.158;2023-01-27T12:45:31;102787.53;;;5.48;75.71
65758;BME280;52495;52.208;5.158;2023-01-27T12:48:10;102770.63;;;5.53;75.97
65758;BME280;52495;52.208;5.158;2023-01-27T12:50:41;102781.50;;;5.46;76.34
65758;BME280;52495;52.208;5.158;2023-01-27T12:53:11;102777.25;;;5.46;76.08
65758;BME280;52495;52.208;5.158;2023-01-27T12:55:42;102776.91;;;5.61;76.34
65758;BME280;52495;52.208;5.158;2023-01-27T12:58:29;102783.56;;;5.56;76.79
65758;BME280;52495;52.208;5.158;2023-01-27T13:00:57;102780.56;;;5.68;75.69
65758;BME280;52495;52.208;5.158;2023-01-27T13:03:25;102775.22;;;5.62;76.62
65758;BME280;52495;52.208;5.158;2023-01-27T13:05:53;102780.50;;;5.67;75.20
65758;BME280;52495;52.208;5.158;2023-01-27T13:08:23;102775.75;;;5.53;74.90
65758;BME280;52495;52.208;5.158;2023-01-27T13:10:55;102772.97;;;5.47;75.66
65758;BME280;52495;52.208;5.158;2023-01-27T13:13:25;102773.84;;;5.72;73.05
65758;BME280;52495;52.208;5.158;2023-01-27T13:15:54;102776.03;;;5.61;73.27
65758;BME280;52495;52.208;5.158;2023-01-27T13:18:22;102782.84;;;5.60;73.64